createdAt,value
2023-02-17T00:01:12.406Z,72.03
2023-02-17T00:03:39.646Z,71.93
2023-02-17T00:06:08.874Z,72.42
2023-02-17T00:08:35.775Z,71.99
2023-02-17T00:11:02.656Z,73.11
2023-02-17T00:13:29.512Z,73.95
2023-02-17T00:15:56.450Z,73.78
2023-02-17T00:18:23.746Z,73.38
2023-02-17T00:20:50.545Z,73.63
2023-02-17T00:23:17.761Z,73.78
2023-02-17T00:25:44.572Z,73.40
2023-02-17T00:28:11.312Z,73.58
2023-02-17T00:30:39.397Z,74.20
2023-02-17T00:33:06.536Z,73.53
2023-02-17T00:35:33.458Z,73.35
2023-02-17T00:38:00.261Z,73.54
2023-02-17T00:40:27.146Z,74.16
2023-02-17T00:42:54.966Z,74.26
2023-02-17T00:45:21.957Z,75.00
2023-02-17T00:47:48.925Z,75.01
2023-02-17T00:50:17.098Z,75.63
2023-02-17T00:52:43.931Z,75.09
2023-02-17T00:55:10.732Z,75.52
2023-02-17T00:57:37.619Z,76.33
2023-02-17T01:00:05.118Z,76.82
2023-02-17T01:02:34.369Z,76.82
2023-02-17T01:05:01.211Z,76.68
2023-02-17T01:07:28.050Z,76.67
2023-02-17T01:09:54.799Z,76.50
2023-02-17T01:12:22.103Z,76.14
2023-02-17T01:14:49.115Z,75.75
2023-02-17T01:17:15.953Z,75.49
2023-02-17T01:19:54.449Z,75.39
2023-02-17T01:22:28.758Z,74.73
2023-02-17T01:24:55.600Z,74.59
2023-02-17T01:27:22.302Z,74.25
2023-02-17T01:29:49.222Z,74.16
2023-02-17T01:32:16.124Z,74.54
2023-02-17T01:34:42.859Z,73.99
2023-02-17T01:37:09.557Z,74.59
2023-02-17T01:39:36.451Z,74.30
2023-02-17T01:42:03.189Z,74.25
2023-02-17T01:44:32.959Z,74.74
2023-02-17T01:46:59.776Z,74.99
2023-02-17T01:49:35.727Z,74.95
2023-02-17T01:52:16.817Z,75.02
2023-02-17T01:54:55.241Z,75.10
2023-02-17T01:57:25.807Z,75.58
2023-02-17T01:59:54.011Z,75.02
2023-02-17T02:02:20.935Z,74.98
2023-02-17T02:04:51.434Z,74.79
2023-02-17T02:07:22.526Z,74.55
2023-02-17T02:09:56.067Z,74.19
2023-02-17T02:12:26.251Z,74.30
2023-02-17T02:14:56.636Z,73.32
2023-02-17T02:18:00.359Z,73.79
2023-02-17T02:20:42.194Z,73.06
2023-02-17T02:23:33.457Z,72.96
2023-02-17T02:26:31.257Z,72.88
2023-02-17T02:29:26.047Z,72.85
2023-02-17T02:32:02.091Z,72.41
2023-02-17T02:35:01.026Z,72.26
2023-02-17T02:37:35.276Z,72.06
2023-02-17T02:40:06.727Z,72.12
2023-02-17T02:42:35.308Z,71.96
2023-02-17T02:45:02.489Z,72.50
2023-02-17T02:47:46.843Z,73.02
2023-02-17T02:50:26.239Z,73.15
2023-02-17T02:53:19.554Z,73.36
2023-02-17T02:56:01.374Z,72.60
2023-02-17T02:59:08.357Z,72.02
2023-02-17T03:01:46.070Z,71.80
2023-02-17T03:04:36.473Z,71.08
2023-02-17T03:07:23.019Z,70.77
2023-02-17T03:09:56.550Z,70.78
2023-02-17T03:12:24.022Z,70.32
2023-02-17T03:14:54.806Z,69.98
2023-02-17T03:17:22.839Z,69.70
2023-02-17T03:19:51.003Z,69.80
2023-02-17T03:22:31.599Z,69.54
2023-02-17T03:25:00.173Z,69.63
2023-02-17T03:27:28.066Z,68.83
2023-02-17T03:29:55.233Z,68.95
2023-02-17T03:32:22.397Z,69.51
2023-02-17T03:34:49.229Z,69.85
2023-02-17T03:37:16.021Z,69.60
2023-02-17T03:39:42.761Z,69.94
2023-02-17T03:42:09.555Z,69.64
2023-02-17T03:44:36.365Z,69.56
2023-02-17T03:47:03.191Z,69.76
2023-02-17T03:49:30.102Z,69.84
2023-02-17T03:51:58.272Z,69.82
2023-02-17T03:54:25.833Z,70.46
2023-02-17T03:56:52.613Z,70.59
2023-02-17T03:59:19.437Z,70.39
2023-02-17T04:01:46.241Z,70.33
2023-02-17T04:04:13.149Z,70.49
2023-02-17T04:06:39.950Z,70.44
2023-02-17T04:09:06.660Z,70.38
2023-02-17T04:11:33.393Z,70.83
2023-02-17T04:14:00.198Z,70.28
2023-02-17T04:16:26.998Z,70.53
2023-02-17T04:18:53.820Z,70.40
2023-02-17T04:21:20.612Z,70.38
2023-02-17T04:23:47.423Z,70.43
2023-02-17T04:26:14.204Z,70.45
2023-02-17T04:28:42.837Z,70.39
2023-02-17T04:31:10.083Z,70.58
2023-02-17T04:33:38.036Z,70.58
2023-02-17T04:36:06.134Z,70.44
2023-02-17T04:38:33.623Z,70.61
2023-02-17T04:41:01.115Z,70.67
2023-02-17T04:43:28.188Z,70.82
2023-02-17T04:45:55.423Z,70.58
2023-02-17T04:48:22.794Z,70.89
2023-02-17T04:50:49.861Z,70.51
2023-02-17T04:53:16.760Z,70.33
2023-02-17T04:55:43.836Z,69.79
2023-02-17T04:58:10.866Z,69.35
2023-02-17T05:00:37.808Z,69.71
2023-02-17T05:03:04.608Z,69.03
2023-02-17T05:05:31.452Z,69.14
2023-02-17T05:07:58.338Z,68.82
2023-02-17T05:10:25.057Z,68.83
2023-02-17T05:12:52.480Z,68.85
2023-02-17T05:15:19.532Z,68.64
2023-02-17T05:17:46.776Z,68.43
2023-02-17T05:20:13.709Z,68.65
2023-02-17T05:22:40.445Z,68.53
2023-02-17T05:25:07.739Z,68.52
2023-02-17T05:27:34.894Z,68.48
2023-02-17T05:30:01.951Z,68.41
2023-02-17T05:32:28.771Z,68.24
2023-02-17T05:34:55.578Z,68.37
2023-02-17T05:37:22.304Z,68.19
2023-02-17T05:39:49.036Z,68.47
2023-02-17T05:42:15.872Z,68.39
2023-02-17T05:44:42.648Z,68.41
2023-02-17T05:47:09.512Z,68.16
2023-02-17T05:49:36.254Z,68.26
2023-02-17T05:52:03.162Z,68.36
2023-02-17T05:54:29.964Z,68.39
2023-02-17T05:56:56.713Z,69.06
2023-02-17T05:59:23.711Z,68.78
2023-02-17T06:01:50.454Z,69.05
2023-02-17T06:04:17.361Z,69.08
2023-02-17T06:06:44.192Z,68.95
2023-02-17T06:09:10.972Z,69.31
2023-02-17T06:11:37.758Z,68.92
2023-02-17T06:14:04.636Z,69.29
2023-02-17T06:16:31.493Z,69.09
2023-02-17T06:19:00.125Z,68.71
2023-02-17T06:21:26.882Z,68.58
2023-02-17T06:23:53.654Z,68.36
2023-02-17T06:26:20.516Z,68.75
2023-02-17T06:28:47.314Z,68.57
2023-02-17T06:31:14.176Z,68.40
2023-02-17T06:33:41.004Z,68.50
2023-02-17T06:36:08.582Z,68.46
2023-02-17T06:38:35.508Z,68.45
2023-02-17T06:41:02.477Z,68.71
2023-02-17T06:43:29.201Z,68.70
2023-02-17T06:45:55.988Z,68.55
2023-02-17T06:48:22.970Z,68.73
2023-02-17T06:50:52.029Z,68.92
2023-02-17T06:53:18.828Z,68.53
2023-02-17T06:55:45.606Z,68.53
2023-02-17T06:58:12.347Z,68.41
2023-02-17T07:00:39.088Z,68.39
2023-02-17T07:03:05.881Z,67.96
2023-02-17T07:05:36.223Z,68.41
2023-02-17T07:08:07.499Z,68.22
2023-02-17T07:10:34.327Z,68.18
2023-02-17T07:13:01.090Z,67.84
2023-02-17T07:15:27.986Z,67.24
2023-02-17T07:17:54.780Z,67.43
2023-02-17T07:20:21.660Z,67.03
2023-02-17T07:22:48.438Z,66.64
2023-02-17T07:25:15.273Z,67.05
2023-02-17T07:27:42.100Z,66.72
2023-02-17T07:30:09.465Z,66.82
2023-02-17T07:32:36.204Z,67.15
2023-02-17T07:35:02.985Z,66.74
2023-02-17T07:37:29.793Z,66.34
2023-02-17T07:39:57.336Z,65.93
2023-02-17T07:42:24.381Z,65.40
2023-02-17T07:44:51.743Z,64.96
2023-02-17T07:47:18.632Z,64.80
2023-02-17T07:49:45.413Z,64.41
2023-02-17T07:52:12.289Z,63.78
2023-02-17T07:54:38.979Z,63.59
2023-02-17T07:57:05.680Z,63.56
2023-02-17T07:59:32.401Z,63.27
2023-02-17T08:01:59.179Z,63.22
2023-02-17T08:04:26.080Z,67.39
2023-02-17T08:06:52.836Z,65.44
2023-02-17T08:09:37.891Z,66.35
2023-02-17T08:12:23.266Z,64.79
2023-02-17T08:14:50.043Z,62.08
2023-02-17T08:17:16.806Z,61.49
2023-02-17T08:19:48.339Z,59.55
2023-02-17T08:22:17.665Z,59.84
2023-02-17T08:24:44.913Z,63.90
2023-02-17T08:27:12.122Z,59.12
2023-02-17T08:29:38.868Z,58.51
2023-02-17T08:32:05.829Z,58.41
2023-02-17T08:34:35.918Z,58.40
2023-02-17T08:37:04.910Z,59.34
2023-02-17T08:39:33.031Z,56.98
2023-02-17T08:42:00.308Z,57.16
2023-02-17T08:44:27.409Z,57.10
2023-02-17T08:46:54.188Z,56.95
2023-02-17T08:49:23.853Z,57.10
2023-02-17T08:51:51.385Z,57.74
2023-02-17T08:54:19.058Z,57.29
2023-02-17T08:56:45.913Z,58.00
2023-02-17T08:59:13.090Z,57.38
2023-02-17T09:01:41.608Z,56.58
2023-02-17T09:04:09.910Z,57.41
2023-02-17T09:06:41.092Z,57.88
2023-02-17T09:09:10.073Z,58.18
2023-02-17T09:11:37.625Z,58.71
2023-02-17T09:14:05.702Z,58.26
2023-02-17T09:16:32.591Z,58.02
2023-02-17T09:18:59.565Z,57.44
2023-02-17T09:21:26.735Z,57.62
2023-02-17T09:23:56.517Z,57.17
2023-02-17T09:26:23.579Z,57.05
2023-02-17T09:28:50.622Z,57.10
2023-02-17T09:31:24.546Z,57.13
2023-02-17T09:33:51.743Z,57.23
2023-02-17T09:36:21.835Z,56.96
2023-02-17T09:38:49.486Z,57.20
2023-02-17T09:41:35.140Z,57.26
2023-02-17T09:44:02.420Z,56.90
2023-02-17T09:46:59.518Z,56.76
2023-02-17T09:49:36.528Z,56.28
2023-02-17T09:52:06.143Z,55.98
2023-02-17T09:55:30.656Z,56.23
2023-02-17T09:58:06.916Z,55.08
2023-02-17T10:00:40.487Z,54.82
2023-02-17T10:03:31.190Z,54.89
2023-02-17T10:06:09.193Z,54.52
2023-02-17T10:08:49.010Z,54.27
2023-02-17T10:11:36.381Z,54.04
2023-02-17T10:14:09.909Z,53.49
2023-02-17T10:16:44.258Z,53.83
2023-02-17T10:19:17.360Z,53.57
2023-02-17T10:21:51.204Z,52.97
2023-02-17T10:24:18.045Z,52.49
2023-02-17T10:26:58.966Z,52.36
2023-02-17T10:29:50.145Z,52.07
2023-02-17T10:32:25.869Z,52.12
2023-02-17T10:35:27.346Z,51.99
2023-02-17T10:38:14.597Z,51.47
2023-02-17T10:40:45.035Z,51.13
2023-02-17T10:43:24.905Z,50.76
2023-02-17T10:45:51.879Z,50.59
2023-02-17T10:48:24.774Z,50.42
2023-02-17T10:50:52.455Z,50.26
2023-02-17T10:53:26.135Z,49.57
2023-02-17T10:56:10.862Z,49.11
2023-02-17T10:59:04.315Z,48.99
2023-02-17T11:01:31.251Z,48.09
2023-02-17T11:04:13.810Z,47.48
2023-02-17T11:06:50.057Z,47.03
2023-02-17T11:09:29.490Z,46.90
2023-02-17T11:12:15.400Z,46.54
2023-02-17T11:14:48.619Z,46.06
2023-02-17T11:17:35.362Z,45.73
2023-02-17T11:20:07.321Z,45.55
2023-02-17T11:22:36.270Z,44.94
2023-02-17T11:25:07.501Z,44.49
2023-02-17T11:27:34.315Z,43.93
2023-02-17T11:30:14.849Z,43.41
2023-02-17T11:32:41.629Z,43.37
2023-02-17T11:35:22.786Z,42.78
2023-02-17T11:37:49.540Z,42.16
2023-02-17T11:40:27.890Z,40.89
2023-02-17T11:43:03.423Z,40.54
2023-02-17T11:45:51.002Z,39.57
2023-02-17T11:49:00.614Z,39.21
2023-02-17T11:51:52.436Z,38.98
2023-02-17T11:54:47.038Z,37.83
2023-02-17T11:57:38.501Z,37.98
2023-02-17T12:00:11.061Z,36.97
2023-02-17T12:03:21.585Z,37.69
2023-02-17T12:06:00.143Z,37.06
2023-02-17T12:08:51.702Z,35.66
2023-02-17T12:11:21.353Z,36.03
2023-02-17T12:14:00.169Z,35.06
2023-02-17T12:17:14.773Z,34.98
2023-02-17T12:19:44.125Z,37.76
2023-02-17T12:22:29.964Z,41.52
2023-02-17T12:24:56.743Z,42.43
2023-02-17T12:27:49.476Z,42.60
2023-02-17T12:30:35.008Z,42.09
2023-02-17T12:33:53.005Z,41.36
2023-02-17T12:36:23.602Z,42.11
2023-02-17T12:38:56.149Z,43.01
2023-02-17T12:41:27.570Z,43.04
2023-02-17T12:43:59.955Z,43.33
2023-02-17T12:46:38.760Z,43.85
2023-02-17T12:49:42.350Z,44.15
2023-02-17T12:52:29.870Z,44.01
2023-02-17T12:55:19.880Z,45.25
2023-02-17T12:57:55.880Z,45.38
2023-02-17T13:00:29.193Z,46.04
2023-02-17T13:03:00.137Z,45.95
2023-02-17T13:05:37.284Z,45.62
2023-02-17T13:08:16.135Z,44.22
2023-02-17T13:10:43.052Z,44.39
2023-02-17T13:13:09.768Z,44.22
2023-02-17T13:15:38.472Z,44.09
2023-02-17T13:18:11.461Z,43.12
2023-02-17T13:20:45.704Z,42.81
2023-02-17T13:23:25.905Z,43.16
2023-02-17T13:26:22.692Z,44.25
2023-02-17T13:28:51.628Z,44.75
2023-02-17T13:31:22.194Z,45.05
2023-02-17T13:33:50.724Z,45.07
2023-02-17T13:36:28.161Z,44.64
2023-02-17T13:39:04.555Z,44.47
2023-02-17T13:41:49.636Z,44.56
2023-02-17T13:44:40.681Z,43.97
2023-02-17T13:47:17.736Z,43.91
2023-02-17T13:49:52.689Z,44.06
2023-02-17T13:52:24.781Z,44.84
2023-02-17T13:54:56.600Z,45.19
2023-02-17T13:57:25.478Z,45.59
2023-02-17T13:59:52.204Z,45.39
2023-02-17T14:02:35.405Z,45.62
2023-02-17T14:05:16.821Z,45.39
2023-02-17T14:07:47.478Z,45.17
2023-02-17T14:10:25.736Z,44.05
2023-02-17T14:12:53.590Z,44.01
2023-02-17T14:15:27.228Z,44.57
2023-02-17T14:17:54.712Z,42.06
2023-02-17T14:20:33.737Z,41.16
2023-02-17T14:23:12.779Z,41.05
2023-02-17T14:25:46.533Z,41.67
2023-02-17T14:28:27.972Z,40.80
2023-02-17T14:30:54.950Z,39.95
2023-02-17T14:33:25.016Z,39.59
2023-02-17T14:36:00.641Z,39.63
2023-02-17T14:38:29.255Z,39.56
2023-02-17T14:40:56.100Z,40.00
2023-02-17T14:43:23.180Z,40.17
2023-02-17T14:45:50.782Z,40.38
2023-02-17T14:48:18.175Z,40.81
2023-02-17T14:50:45.682Z,40.92
2023-02-17T14:53:18.357Z,40.44
2023-02-17T14:55:50.631Z,39.80
2023-02-17T14:58:29.050Z,39.31
2023-02-17T15:00:56.521Z,39.30
2023-02-17T15:03:23.419Z,38.17
2023-02-17T15:05:50.581Z,37.72
2023-02-17T15:08:21.342Z,37.31
2023-02-17T15:10:49.191Z,37.40
2023-02-17T15:13:20.905Z,37.63
2023-02-17T15:15:49.414Z,37.87
2023-02-17T15:18:18.692Z,38.63
2023-02-17T15:20:49.614Z,38.36
2023-02-17T15:23:22.501Z,38.65
2023-02-17T15:25:50.060Z,38.85
2023-02-17T15:28:19.796Z,39.23
2023-02-17T15:30:51.407Z,39.31
2023-02-17T15:33:18.710Z,39.51
2023-02-17T15:35:53.680Z,39.59
2023-02-17T15:38:21.010Z,39.68
2023-02-17T15:40:48.028Z,39.61
2023-02-17T15:43:22.658Z,39.49
2023-02-17T15:45:49.688Z,39.82
2023-02-17T15:48:26.306Z,40.35
2023-02-17T15:50:54.049Z,40.61
2023-02-17T15:53:20.858Z,41.22
2023-02-17T15:55:48.567Z,41.47
2023-02-17T15:58:21.242Z,41.80
2023-02-17T16:00:52.013Z,42.21
2023-02-17T16:03:18.944Z,42.68
2023-02-17T16:05:45.943Z,43.15
2023-02-17T16:08:12.737Z,43.26
2023-02-17T16:10:42.441Z,43.57
2023-02-17T16:13:14.413Z,43.13
2023-02-17T16:15:42.689Z,43.20
2023-02-17T16:18:27.494Z,43.01
2023-02-17T16:20:54.201Z,42.97
2023-02-17T16:23:21.124Z,43.19
2023-02-17T16:25:50.180Z,43.59
2023-02-17T16:28:22.041Z,43.48
2023-02-17T16:30:50.990Z,41.90
2023-02-17T16:33:18.925Z,41.18
2023-02-17T16:35:45.777Z,41.11
2023-02-17T16:38:22.597Z,41.00
2023-02-17T16:40:52.248Z,41.11
2023-02-17T16:43:22.301Z,40.22
2023-02-17T16:45:56.549Z,40.05
2023-02-17T16:48:25.795Z,40.20
2023-02-17T16:50:52.683Z,40.14
2023-02-17T16:53:19.838Z,40.14
2023-02-17T16:55:46.678Z,39.91
2023-02-17T16:58:16.967Z,40.03
2023-02-17T17:00:46.483Z,40.24
2023-02-17T17:03:13.655Z,40.41
2023-02-17T17:05:41.241Z,40.38
2023-02-17T17:08:11.262Z,40.95
2023-02-17T17:10:40.561Z,40.78
2023-02-17T17:13:07.532Z,41.18
2023-02-17T17:15:41.218Z,41.20
2023-02-17T17:18:09.526Z,41.15
2023-02-17T17:20:41.645Z,41.09
2023-02-17T17:23:11.936Z,41.44
2023-02-17T17:25:41.142Z,41.40
2023-02-17T17:28:08.706Z,41.77
2023-02-17T17:30:35.840Z,41.85
2023-02-17T17:33:02.668Z,42.05
2023-02-17T17:35:30.300Z,42.20
2023-02-17T17:37:58.742Z,42.16
2023-02-17T17:40:31.256Z,42.09
2023-02-17T17:42:58.004Z,42.35
2023-02-17T17:45:25.413Z,42.20
2023-02-17T17:47:52.358Z,42.32
2023-02-17T17:50:23.394Z,42.34
2023-02-17T17:52:50.262Z,42.47
2023-02-17T17:55:17.015Z,42.50
2023-02-17T17:57:43.899Z,42.63
2023-02-17T18:00:14.253Z,42.76
2023-02-17T18:02:43.916Z,42.88
2023-02-17T18:05:13.036Z,43.14
2023-02-17T18:07:42.724Z,43.31
2023-02-17T18:10:11.702Z,43.60
2023-02-17T18:12:38.821Z,43.62
2023-02-17T18:15:07.372Z,43.46
2023-02-17T18:17:37.825Z,43.27
2023-02-17T18:20:05.973Z,43.61
2023-02-17T18:22:32.726Z,43.90
2023-02-17T18:25:00.127Z,43.96
2023-02-17T18:27:26.992Z,43.99
2023-02-17T18:29:57.020Z,44.08
2023-02-17T18:32:24.767Z,44.49
2023-02-17T18:34:51.514Z,44.82
2023-02-17T18:37:18.254Z,45.42
2023-02-17T18:39:45.003Z,46.19
2023-02-17T18:42:11.821Z,46.59
2023-02-17T18:44:38.617Z,46.95
2023-02-17T18:47:05.422Z,47.66
2023-02-17T18:49:32.161Z,47.57
2023-02-17T18:51:58.910Z,47.81
2023-02-17T18:54:25.761Z,48.01
2023-02-17T18:56:52.759Z,47.77
2023-02-17T18:59:19.469Z,48.24
2023-02-17T19:01:46.245Z,48.54
2023-02-17T19:04:13.105Z,49.05
2023-02-17T19:06:40.447Z,49.34
2023-02-17T19:09:07.401Z,49.22
2023-02-17T19:11:34.336Z,49.15
2023-02-17T19:14:01.969Z,48.43
2023-02-17T19:16:30.921Z,48.77
2023-02-17T19:18:58.452Z,48.85
2023-02-17T19:21:25.449Z,48.88
2023-02-17T19:23:52.616Z,48.07
2023-02-17T19:26:20.481Z,48.87
2023-02-17T19:28:47.495Z,48.92
2023-02-17T19:31:18.192Z,48.98
2023-02-17T19:33:45.813Z,49.09
2023-02-17T19:36:16.090Z,49.43
2023-02-17T19:38:43.145Z,49.54
2023-02-17T19:41:11.631Z,49.73
2023-02-17T19:43:38.661Z,49.82
2023-02-17T19:46:05.884Z,49.74
2023-02-17T19:48:33.149Z,49.68
2023-02-17T19:51:06.176Z,48.72
2023-02-17T19:53:34.231Z,49.01
2023-02-17T19:56:17.297Z,49.15
2023-02-17T19:58:45.307Z,49.22
2023-02-17T20:01:22.640Z,48.78
2023-02-17T20:03:49.570Z,47.73
2023-02-17T20:06:23.310Z,47.20
2023-02-17T20:08:59.173Z,47.30
2023-02-17T20:11:26.694Z,46.86
2023-02-17T20:13:53.694Z,47.06
2023-02-17T20:16:20.567Z,47.14
2023-02-17T20:18:49.016Z,47.34
2023-02-17T20:21:21.836Z,47.57
2023-02-17T20:23:48.793Z,47.46
2023-02-17T20:26:25.392Z,47.52
2023-02-17T20:28:52.966Z,47.26
2023-02-17T20:31:20.296Z,47.14
2023-02-17T20:33:47.566Z,47.20
2023-02-17T20:36:14.430Z,47.04
2023-02-17T20:38:41.807Z,46.85
2023-02-17T20:41:13.970Z,46.60
2023-02-17T20:43:40.966Z,46.66
2023-02-17T20:46:10.994Z,46.99
2023-02-17T20:48:38.040Z,47.12
2023-02-17T20:51:05.810Z,47.49
2023-02-17T20:53:32.636Z,47.37
2023-02-17T20:55:59.389Z,47.66
2023-02-17T20:58:26.217Z,47.54
2023-02-17T21:00:52.983Z,47.80
2023-02-17T21:03:19.811Z,48.07
2023-02-17T21:05:46.882Z,48.09
2023-02-17T21:08:13.642Z,48.40
2023-02-17T21:10:40.658Z,48.31
2023-02-17T21:13:07.429Z,48.66
2023-02-17T21:15:34.856Z,48.59
2023-02-17T21:18:01.741Z,48.57
2023-02-17T21:20:28.544Z,48.94
2023-02-17T21:22:55.309Z,48.73
2023-02-17T21:25:22.052Z,48.74
2023-02-17T21:27:48.860Z,49.01
2023-02-17T21:30:15.813Z,49.17
2023-02-17T21:32:42.842Z,49.32
2023-02-17T21:35:11.178Z,49.39
2023-02-17T21:37:39.023Z,49.37
2023-02-17T21:40:10.705Z,49.60
2023-02-17T21:42:56.674Z,50.77
2023-02-17T21:45:24.214Z,50.86
2023-02-17T21:47:51.403Z,50.67
2023-02-17T21:50:19.181Z,50.83
2023-02-17T21:52:45.945Z,51.27
2023-02-17T21:55:12.677Z,51.15
2023-02-17T21:57:39.457Z,51.03
2023-02-17T22:00:07.000Z,51.36
2023-02-17T22:02:39.162Z,51.53
2023-02-17T22:05:07.669Z,51.28
2023-02-17T22:07:35.014Z,51.95
2023-02-17T22:10:02.889Z,51.75
2023-02-17T22:12:29.662Z,51.95
2023-02-17T22:14:57.758Z,52.07
2023-02-17T22:17:24.519Z,51.74
2023-02-17T22:19:51.274Z,51.61
2023-02-17T22:22:18.097Z,51.62
2023-02-17T22:24:44.867Z,51.41
2023-02-17T22:27:11.626Z,51.13
2023-02-17T22:29:38.337Z,51.16
2023-02-17T22:32:05.247Z,50.29
2023-02-17T22:34:32.102Z,50.01
2023-02-17T22:36:58.962Z,49.91
2023-02-17T22:39:25.722Z,50.08
2023-02-17T22:41:52.521Z,49.58
2023-02-17T22:44:19.295Z,49.85
2023-02-17T22:46:46.078Z,49.57
2023-02-17T22:49:12.849Z,49.80
2023-02-17T22:51:40.556Z,49.74
2023-02-17T22:54:08.303Z,49.71
2023-02-17T22:56:35.525Z,49.97
2023-02-17T22:59:03.968Z,49.86
2023-02-17T23:01:34.616Z,49.95
2023-02-17T23:04:02.029Z,49.54
2023-02-17T23:06:31.933Z,49.24
2023-02-17T23:09:00.021Z,49.61
2023-02-17T23:11:49.463Z,49.53
2023-02-17T23:14:30.757Z,49.48
2023-02-17T23:17:01.167Z,49.90
2023-02-17T23:19:29.354Z,49.81
2023-02-17T23:21:59.378Z,49.87
2023-02-17T23:24:27.219Z,49.55
2023-02-17T23:26:56.188Z,49.88
2023-02-17T23:29:23.569Z,49.78
2023-02-17T23:31:50.438Z,49.66
2023-02-17T23:34:17.640Z,49.94
2023-02-17T23:36:45.701Z,50.00
2023-02-17T23:39:16.247Z,50.03
2023-02-17T23:41:43.689Z,50.14
2023-02-17T23:44:11.746Z,50.37
2023-02-17T23:46:39.950Z,50.17
2023-02-17T23:49:06.808Z,50.24
2023-02-17T23:51:33.588Z,49.78
2023-02-17T23:54:00.407Z,49.76
2023-02-17T23:56:32.806Z,49.77
2023-02-17T23:59:00.003Z,49.66
